Colorado AWOS List, Phone Numbers, Maps

USA |  
| Search AWOS

Rocky Mountain States: Montana | Wyoming | Colorado | New Mexico

Complete weather reports: Colorado

Legend: KFNL = METAR available Follow your local AWOS on AV Mobile = METAR available on AV Mobile
Station Colorado Location Frequency Phone
KAKOFAA ID AKO, ASOS, KAKO 230553Z AUTO 19018G27KT 10SM CLR 16/06 A2965 RMK AO2 PK WND 18029/0456 SLP988 T01610056 10239 20161 58014 Follow KAKO on AV Mobile COLORADO PLAINS REGIONAL 135.475 970-345-2320
KALSFAA ID ALS, ASOS, KALS 230552Z AUTO 23006KT 10SM CLR 11/M01 A2990 Follow KALS on AV Mobile SAN LUIS VALLEY REGIONAL 135.175 719-589-5669
KASEFAA ID ASE, ASOS, KASE 230553Z 14012KT 10SM SCT080 SCT095 11/01 A2981 Follow KASE on AV Mobile ASPEN-PITKIN COUNTY AIRPORT 120.400 970-925-9168
KBKFFAA ID BKF, KBKF 230555Z 18013KT 25SM BKN140 BKN220 15/01 A2969 Follow KBKF on AV Mobile Aurora, Buckley Air Force Base Airport
K7BMFAA ID 7BM, AWOS-3, K7BM 230635Z AUTO 21006KT 10SM OVC060 10/M05 A2993 RMK AO2 Follow K7BM on AV Mobile Cottonwood Pass 132.050 303-512-4919
KBDUFAA ID BDU, AWOS-3, KBDU 230636Z AUTO 22008KT 10SM CLR 14/01 A2963 RMK AO2 Follow KBDU on AV Mobile Boulder Municipal Airport 118.825 303-541-9540
KAEJFAA ID AEJ, AWOS-3, KAEJ 230635Z AUTO 13010G16KT 10SM BKN080 09/M01 A2985 RMK AO2 T00931006 Follow KAEJ on AV Mobile Central Colorado Regional Airport 132.925 719-395-2599
KITRFAA ID ITR, ASOS, KITR 230553Z AUTO 16019KT 10SM CLR 14/08 A2971 RMK AO2 SLP017 T01390078 10261 20139 58016 Follow KITR on AV Mobile Kit Carson County Airport 135.225 719-346-7036
K1V6FAA ID 1V6, AWOS-3, K1V6 230635Z AUTO 32003KT 10SM CLR 14/03 A2971 RMK AO2 Follow K1V6 on AV Mobile CANON CITY 120.025
KAFFFAA ID AFF, KAFF 230558Z AUTO VRB05KT 10SM CLR 13/01 A2978 RMK AO2 SLP009 T01290008 10199 20127 58010 Follow KAFF on AV Mobile Air Force Academy
KCOSFAA ID COS, ASOS, KCOS 230554Z 06003KT 10SM SCT100 BKN240 12/02 A2977 Follow KCOS on AV Mobile COLORADO SPRINGS MUNI 125.000 719-637-9696
KFLYFAA ID FLY, AWOS-3PT, KFLY 230629Z AUTO 19007KT 10SM SCT100 12/01 A2980 RMK AO2 T01150005 Follow KFLY on AV Mobile Meadowlake Airport, Peyton, CO 118.450 719-683-5371
KCCUFAA ID CCU, AWOS-3, KCCU 230636Z AUTO 23010G25KT 10SM SCT037 BKN043 BKN050 03/M03 A3001 RMK AO2 Follow KCCU on AV Mobile Copper Mountain, Red Cliff Pass 118.075 970-968-1715
KCEZFAA ID CEZ, ASOS, KCEZ 230553Z AUTO 20011KT 10SM CLR 15/M03 A2984 RMK AO2 SLP031 T01501028 10228 20150 50005 Follow KCEZ on AV Mobile CORTEZ MONTEZUMA COUNTY AIRPORT 135.625 970-564-0193
KCAGFAA ID CAG, ASOS, KCAG 230553Z AUTO 00000KT 10SM SCT110 11/01 A2969 Follow KCAG on AV Mobile CRAIG MOFFAT AIRPORT 135.425 970-824-2373
KAJZFAA ID AJZ, AWOS-3, KAJZ 230635Z AUTO 00000KT 10SM CLR 19/M04 A2969 RMK AO2 T01901044 Follow KAJZ on AV Mobile Blake Field Airport 134.000 970-874-3251
KDNRICAO ID KDNR Denver / Stapleton International, Co.
KAPAFAA ID APA, ASOS, KAPA 230553Z 20009KT 10SM FEW110 BKN230 14/00 A2970 RMK AO2 SLP994 60000 T01440000 10211 20133 58012 Follow KAPA on AV Mobile DENVER CENTENNIAL AIRPORT 120.300 303-706-9098
KDENFAA ID DEN, ASOS, KDEN 230553Z 19014KT 10SM BKN220 16/01 A2967 Follow KDEN on AV Mobile DENVER INTERNATIONAL AIRPORT 125.600 303-342-0838
KFTGFAA ID FTG, AWOS-3, KFTG 230148Z 00000KT 30SM FEW070 BKN110 16/04 A2973 Follow KFTG on AV Mobile Front Range Airport 119.025 303-261-9104
KBJCFAA ID BJC, AWOS-3, KBJC 230635Z AUTO 18009KT 10SM CLR 14/02 A2966 Follow KBJC on AV Mobile Rocky Mountain Metro Airport 126.250 720-887-8067
K4V5ICAO ID K4V5 Durango Aviation Weather Reporting Station
KDROFAA ID DRO, ASOS, KDRO 230553Z AUTO 24009KT 10SM OVC100 16/M07 A2988 RMK AO2 SLP038 T01561072 10194 20144 51003 Follow KDRO on AV Mobile DURANGO-LA PLATA COUNTY AIRPORT 120.625 970-259-3579
KEGEFAA ID EGE, AWOS-3, KEGE 230635Z AUTO 09005KT 10SM BKN110 12/03 A2975 Follow KEGE on AV Mobile Eagle County Regional 135.575 970-524-7386
CO90FAA ID CO90, ASOS, KAEJ 230645Z AUTO 11007KT 10SM BKN080 09/M01 A2985 RMK AO2 T00911006 Follow  on AV Mobile USAF Academy Bullseye Aux Airstrip 118.325 719-683-3346
K0COFAA ID 0CO, AWOS-3, K0CO 230635Z AUTO 25019KT 10SM CLR 00/M05 A3001 RMK AO2 Follow K0CO on AV Mobile EMPIRE 134.325
KEIKFAA ID EIK, AWOS-3, KEIK 230636Z AUTO 23003KT 10SM CLR 14/03 A2963 RMK AO2 T01410026 Follow KEIK on AV Mobile Erie Municipal Airport 133.825 303-604-4339
KFCSFAA ID FCS, KFCS 230558Z AUTO 10002KT 10SM CLR 13/01 A2973 RMK AO2 SLP018 T01320005 10231 20130 57015 $ Follow KFCS on AV Mobile Fort Carson
KFCLICAO ID KFCL Fort Collins Supplementary Aviation Weather Reporting Station
KFNLFAA ID FNL, AWOS-3, KFNL 230635Z AUTO 15007KT 10SM CLR 12/03 A2963 RMK AO1 Follow KFNL on AV Mobile Fort Collins/Loveland, Fort Collins-Loveland Municipal Airport 135.075 970-669-9187
KFMMFAA ID FMM, AWOS-3, KFMM 230635Z AUTO 18009KT 10SM CLR 16/03 A2962 RMK AO2 T01550027 Follow KFMM on AV Mobile Fort Morgan Municipal Airport 132.950 970-867-4823
KGNBFAA ID GNB, AWOS-1 Granby-Grand County Airport 119.925 970-887-1803
KGJTFAA ID GJT, ASOS, KGJT 230553Z AUTO 22013G20KT 10SM CLR 20/M04 A2962 Follow KGJT on AV Mobile GRAND JUNCTION WALKER FIELD 118.550 970-245-7881
KGXYFAA ID GXY, AWOS-3, KGXY 230635Z AUTO 08004KT 10SM SCT120 11/03 A2961 RMK AO1 Follow KGXY on AV Mobile Greeley, Greeley-Weld County Airport 135.175 970-352-3511
K2V9ICAO ID K2V9 Gunnison Aviation Weather Reporting Station
KGUCFAA ID GUC, AWOS-3, KGUC 230635Z AUTO 34007KT 10SM CLR 07/00 A2989 RMK AO1 Follow KGUC on AV Mobile Gunnison, Gunnison-Crested Butte Regional Airport 135.075 970-641-3240
KHDNFAA ID HDN, AWOS-3, KHDN 230635Z AUTO 29005KT 10SM OVC100 10/00 A2974 RMK AO1 Follow KHDN on AV Mobile Hayden, Yampa Valley Airport 119.275 970-276-3690
KHEQFAA ID HEQ, AWOS-3, KHEQ 230635Z AUTO 16019G25KT 10SM CLR 16/08 A2964 RMK AO2 Follow KHEQ on AV Mobile Holyoke Airport 119.275 970-854-3679
K20VFAA ID 20V, AWOS-3, K20V 230636Z AUTO 21013G18KT 10SM CLR 12/M01 A2976 RMK AO2 Follow K20V on AV Mobile Kremmling, Mc Elroy Airfield 118.425 970-724-9659
KLHXFAA ID LHX, ASOS, KLHX 230553Z AUTO 21016G23KT 10SM CLR 20/04 A2972 RMK AO2 PK WND 21026/0455 SLP002 T02000044 10244 20194 55007 Follow KLHX on AV Mobile LA JUNTA MUNICIPAL AIRPORT 135.525 719-384-5961
KVTPFAA ID VTP, AWOS-3, KVTP 230633Z AUTO 23020G31KT 10SM OVC055 06/M02 A2997 RMK AO2 Follow KVTP on AV Mobile La Veta Mountain, La Veta Pass 119.925 719-587-3120
KLAAFAA ID LAA, ASOS, KLAA 230553Z AUTO 20012KT 10SM CLR 15/07 A2969 RMK AO2 SLP005 T01500067 10222 20144 58014 Follow KLAA on AV Mobile LAMAR MUNICIPAL AIRPORT 135.625 719-336-3854
KLXVFAA ID LXV, ASOS, KLXV 230553Z AUTO 15007KT 10SM BKN060 05/M03 A2992 Follow KLXV on AV Mobile LEADVILLE LAKE CO 118.375 719-486-2735
KLICFAA ID LIC, ASOS, KLIC 230555Z AUTO 14004KT 10SM CLR 11/04 A2973 RMK AO2 SLP006 T01060039 10217 20100 58010 Follow KLIC on AV Mobile LIMON MUNICIPAL AIRPORT 121.125 719-775-0515
KLMOFAA ID LMO, AWOS-3, KLMO 230635Z AUTO 12003KT 10SM CLR 11/04 A2964 RMK AO2 T01100039 Follow KLMO on AV Mobile Vance Brand Airport 120.000 303-684-7545
KEEOFAA ID EEO, ASOS, KEEO 230553Z AUTO 24015G31KT 10SM BKN060 OVC080 14/00 A2971 RMK AO2 PK WND 20050/0520 WSHFT 0514 LTG DSNT N RAB02E52 SLP974 P0000 60000 T01440000 10183 20128 51000 Follow KEEO on AV Mobile MEEKER AIRPORT 135.525 970-878-5036
KMYPFAA ID MYP, AWOS-3, KMYP 230636Z AUTO 22028G34KT 10SM BKN042 OVC048 01/M03 A3013 RMK AO2 Follow KMYP on AV Mobile Salida Mountain, Monarch Pass 124.175 719-539-4436
KMTJFAA ID MTJ, ASOS, KMTJ 230553Z AUTO 19011KT 10SM CLR 18/M05 A2974 RMK AO2 SLP990 T01781050 10206 20172 58005 Follow KMTJ on AV Mobile MONTROSE REGIONAL AIRPORT 135.225 970-249-1534
KMNHFAA ID MNH, AWOS-3, KMNH 230635Z AUTO 18011KT 10SM SCT090 11/00 A2978 RMK AO2 Follow KMNH on AV Mobile Elbert Mountain, Monument Pass 134.375 303-648-3479
K3MWFAA ID 3MW, AWOS-3, K3MW 230636Z AUTO 16023G32KT 10SM SCT060 SCT070 SCT120 06/M05 A2987 RMK AO2 PWINO Follow K3MW on AV Mobile Mount Werner 127.125 970-871-5640
KCRVICAO ID KCRV Nederland Mountain, Corona Pass
KAIBFAA ID AIB, AWOS-3, KAIB 230635Z AUTO 21022G32KT 10SM 17/M04 A2978 RMK AO2 Follow KAIB on AV Mobile Hopkins Field Airport 132.525 970-864-2325
KPSOFAA ID PSO, AWOS-3, KPSO 230635Z AUTO 24007KT 10SM OVC090 15/M09 A2992 RMK AO2 T01501088 Follow KPSO on AV Mobile Stevens Field Airport 127.175 970-731-0365
KPEFICAO ID KPEF Peterson Air Force Base
KPUXICAO ID KPUX Pueblo NEXRAD
KPUBFAA ID PUB, ASOS, KPUB 230553Z AUTO 20016KT 10SM FEW120 19/02 A2969 Follow KPUB on AV Mobile PUEBLO MEMORIAL AIRPORT 125.250 719-948-2803
K1V1ICAO ID K1V1 Rifle Aviation Weather Reporting Station
KRILFAA ID RIL, ASOS, KRIL 230553Z AUTO 22022G31KT 10SM FEW110 20/M07 A2967 RMK AO2 PK WND 20031/0550 LTG DSNT W SLP982 T02001067 10217 20167 55005 Follow KRIL on AV Mobile RIFLE GARFIELD COUNTY RGNL 135.275 970-625-2206
K04VFAA ID 04V, AWOS-3, K04V 230635Z AUTO 00000KT 10SM SCT095 08/M01 A2990 RMK AO2 Follow K04V on AV Mobile Saguache, Saguache Municipal Airport 118.625 719-655-2229
KS29ICAO ID KS29 Salida
KANKFAA ID ANK, AWOS-3, KANK 230635Z AUTO 19007KT 10SM SCT070 BKN090 13/M01 A2992 RMK AO1 T01301008 Follow KANK on AV Mobile Harriet Alexander Field Airport 133.850 719-539-5268
KSPDICAO ID KSPD, KSPD 230556Z AUTO 20019G24KT 17/06 A2980 RMK AO1 SLP032 T01720056 10194 20133 58004 Follow KSPD on AV Mobile SPRINGFIELD COMANCHE NATL
KSBSFAA ID SBS, AWOS-3, KSBS 230635Z AUTO 12014G18KT 10SM SCT095 12/M02 A2970 RMK AO1 T01241021 Follow KSBS on AV Mobile Steamboat Springs 118.325 970-879-7794
KSTKFAA ID STK, AWOS-3, KSTK 230630Z AUTO 19005KT 10SM CLR 17/07 A2959 RMK AO2 Follow KSTK on AV Mobile Sterling Municipal Airport 118.525 970-526-3009
K5SMFAA ID 5SM, AWOS-3, K5SM 230638Z AUTO 20003KT 10SM BKN110 05/M03 A2991 RMK AO2 Follow K5SM on AV Mobile Sunlight 126.075 970-384-3380
KTEXFAA ID TEX, AWOS-3, KTEX 230617Z AUTO 20015G27KT 10SM CLR 11/M07 A2993 RMK AO2 Follow KTEX on AV Mobile Telluride, Telluride Regional Airport 118.325 970-728-1534
KTADFAA ID TAD, ASOS, KTAD 230554Z AUTO 23013KT 10SM FEW110 17/03 A2983 RMK AO2 PK WND 18031/0456 SLP024 T01670033 10222 20161 50004 Follow KTAD on AV Mobile Trinidad, Perry Stokes Airport 119.025 719-845-1156
K33VFAA ID 33V, AWOS-3, K33V 230636Z AUTO 16014G17KT 10SM SCT090 08/M01 A2977 RMK AO2 Follow K33V on AV Mobile WALDEN 118.625 970-723-4513
4V1FAA ID 4V1, AWOS-3, KAEJ 230645Z AUTO 11007KT 10SM BKN080 09/M01 A2985 RMK AO2 T00911006 Follow  on AV Mobile Spanish Peaks Airfield 123.600 719-738-1053
K4BMFAA ID 4BM, AWOS-3, K4BM 230635Z AUTO 19007G19KT 10SM CLR 02/M03 A2999 RMK AO2 Follow K4BM on AV Mobile Wilkerson Pass 132.3 303-512-4418
KC96ICAO ID KC96 Winter Park Resort
KCPWFAA ID CPW, AWOS-3, KCPW 230636Z AUTO 22028G51KT 10SM SCT033 BKN044 OVC050 01/M05 A3007 RMK AO2 Follow KCPW on AV Mobile Pagosa Springs, Wolf Creek Pass 121.125 970-264-2180
K2V5FAA ID 2V5, AWOS-3, K2V5 230635Z AUTO 16020G26KT 10SM CLR 16/08 A2965 RMK AO2 T01600081 Follow K2V5 on AV Mobile Wray Municipal Airport 118.250 970-332-5930

Click on the AV Mobile icon AV Mobile icon by any station to follow that AWOS feed on AirportView.net Mobile.

Legend: Commercial service airport with AWOS Commercial Airport AWOSNon-Commercial service airport with AWOS Non-Commercial Airport AWOS
Airport AWOS - Click symbol for weather report Fort Morgan Municipal Airport KFMM 230635Z AUTO 18009KT 10SM CLR 16/03 A2962 RMK AO2 T01550027 Hopkins Field Airport KAIB 230635Z AUTO 21022G32KT 10SM 17/M04 A2978 RMK AO2 Telluride, Telluride Regional Airport KTEX 230617Z AUTO 20015G27KT 10SM CLR 11/M07 A2993 RMK AO2 Greeley, Greeley-Weld County Airport KGXY 230635Z AUTO 08004KT 10SM SCT120 11/03 A2961 RMK AO1 Front Range Airport KFTG 230148Z 00000KT 30SM FEW070 BKN110 16/04 A2973 Rocky Mountain Metro Airport KBJC 230635Z AUTO 18009KT 10SM CLR 14/02 A2966 DENVER CENTENNIAL AIRPORT KAPA 230553Z 20009KT 10SM FEW110 BKN230 14/00 A2970 RMK AO2 SLP994 60000 T01440000 10211 20133 58012 DENVER INTERNATIONAL AIRPORT KDEN 230553Z 19014KT 10SM BKN220 16/01 A2967 Fort Collins/Loveland, Fort Collins-Loveland Municipal Airport KFNL 230635Z AUTO 15007KT 10SM CLR 12/03 A2963 RMK AO1 Boulder Municipal Airport KBDU 230636Z AUTO 22008KT 10SM CLR 14/01 A2963 RMK AO2 Vance Brand Airport KLMO 230635Z AUTO 12003KT 10SM CLR 11/04 A2964 RMK AO2 T01100039 Sterling Municipal Airport KSTK 230630Z AUTO 19005KT 10SM CLR 17/07 A2959 RMK AO2 Holyoke Airport KHEQ 230635Z AUTO 16019G25KT 10SM CLR 16/08 A2964 RMK AO2 COLORADO PLAINS REGIONAL KAKO 230553Z AUTO 19018G27KT 10SM CLR 16/06 A2965 RMK AO2 PK WND 18029/0456 SLP988 T01610056 10239 20161 58014 Kit Carson County Airport KITR 230553Z AUTO 16019KT 10SM CLR 14/08 A2971 RMK AO2 SLP017 T01390078 10261 20139 58016 LIMON MUNICIPAL AIRPORT KLIC 230555Z AUTO 14004KT 10SM CLR 11/04 A2973 RMK AO2 SLP006 T01060039 10217 20100 58010 COLORADO SPRINGS MUNI KCOS 230554Z 06003KT 10SM SCT100 BKN240 12/02 A2977 LAMAR MUNICIPAL AIRPORT KLAA 230553Z AUTO 20012KT 10SM CLR 15/07 A2969 RMK AO2 SLP005 T01500067 10222 20144 58014 LA JUNTA MUNICIPAL AIRPORT KLHX 230553Z AUTO 21016G23KT 10SM CLR 20/04 A2972 RMK AO2 PK WND 21026/0455 SLP002 T02000044 10244 20194 55007 Trinidad, Perry Stokes Airport KTAD 230554Z AUTO 23013KT 10SM FEW110 17/03 A2983 RMK AO2 PK WND 18031/0456 SLP024 T01670033 10222 20161 50004 PUEBLO MEMORIAL AIRPORT KPUB 230553Z AUTO 20016KT 10SM FEW120 19/02 A2969 CANON CITY 1V6 SAN LUIS VALLEY REGIONAL KALS 230552Z AUTO 23006KT 10SM CLR 11/M01 A2990 Saguache, Saguache Municipal Airport K04V 230635Z AUTO 00000KT 10SM SCT095 08/M01 A2990 RMK AO2 Granby-Grand County Airport KGNB WALDEN 33V Steamboat Springs KSBS 230635Z AUTO 12014G18KT 10SM SCT095 12/M02 A2970 RMK AO1 T01241021 Hayden, Yampa Valley Airport KHDN 230635Z AUTO 29005KT 10SM OVC100 10/00 A2974 RMK AO1 Kremmling, Mc Elroy Airfield K20V 230636Z AUTO 21013G18KT 10SM CLR 12/M01 A2976 RMK AO2 LEADVILLE LAKE CO KLXV 230553Z AUTO 15007KT 10SM BKN060 05/M03 A2992 Eagle County Regional KEGE 230635Z AUTO 09005KT 10SM BKN110 12/03 A2975 CRAIG MOFFAT AIRPORT KCAG 230553Z AUTO 00000KT 10SM SCT110 11/01 A2969 MEEKER AIRPORT KEEO 230553Z AUTO 24015G31KT 10SM BKN060 OVC080 14/00 A2971 RMK AO2 PK WND 20050/0520 WSHFT 0514 LTG DSNT N RAB02E52 SLP974 P0000 60000 T01440000 10183 20128 51000 ASPEN-PITKIN COUNTY AIRPORT KASE 230553Z 14012KT 10SM SCT080 SCT095 11/01 A2981 Gunnison, Gunnison-Crested Butte Regional Airport KGUC 230635Z AUTO 34007KT 10SM CLR 07/00 A2989 RMK AO1 DURANGO-LA PLATA COUNTY AIRPORT  KDRO 230553Z AUTO 24009KT 10SM OVC100 16/M07 A2988 RMK AO2 SLP038 T01561072 10194 20144 51003 Stevens Field Airport KPSO 230635Z AUTO 24007KT 10SM OVC090 15/M09 A2992 RMK AO2 T01501088 CORTEZ MONTEZUMA COUNTY AIRPORT  KCEZ 230553Z AUTO 20011KT 10SM CLR 15/M03 A2984 RMK AO2 SLP031 T01501028 10228 20150 50005 MONTROSE REGIONAL AIRPORT KMTJ 230553Z AUTO 19011KT 10SM CLR 18/M05 A2974 RMK AO2 SLP990 T01781050 10206 20172 58005 RIFLE GARFIELD COUNTY RGNL KRIL 230553Z AUTO 22022G31KT 10SM FEW110 20/M07 A2967 RMK AO2 PK WND 20031/0550 LTG DSNT W SLP982 T02001067 10217 20167 55005 GRAND JUNCTION WALKER FIELD KGJT 230553Z AUTO 22013G20KT 10SM CLR 20/M04 A2962 Blake Field Airport KAJZ 230635Z AUTO 00000KT 10SM CLR 19/M04 A2969 RMK AO2 T01901044 Central Colorado Regional Airport KAEJ 230635Z AUTO 13010G16KT 10SM BKN080 09/M01 A2985 RMK AO2 T00931006 Harriet Alexander Field Airport KANK 230635Z AUTO 19007KT 10SM SCT070 BKN090 13/M01 A2992 RMK AO1 T01301008 Erie Municipal Airport KEIK 230636Z AUTO 23003KT 10SM CLR 14/03 A2963 RMK AO2 T01410026 Wray Municipal Airport K2V5 230635Z AUTO 16020G26KT 10SM CLR 16/08 A2965 RMK AO2 T01600081
Legend: High Mountain AWOS Mountain Pass AWOS
Mountain Pass AWOS - Click symbol for weather report Pagosa Springs, Wolf Creek Pass KCPW 230636Z AUTO 22028G51KT 10SM SCT033 BKN044 OVC050 01/M05 A3007 RMK AO2 Saguache, Saguache Municipal Airport K04V 230635Z AUTO 00000KT 10SM SCT095 08/M01 A2990 RMK AO2 Kremmling, Mc Elroy Airfield K20V 230636Z AUTO 21013G18KT 10SM CLR 12/M01 A2976 RMK AO2 La Veta Mountain, La Veta Pass KVTP 230633Z AUTO 23020G31KT 10SM OVC055 06/M02 A2997 RMK AO2 Salida Mountain, Monarch Pass KMYP 230636Z AUTO 22028G34KT 10SM BKN042 OVC048 01/M03 A3013 RMK AO2 Cottonwood Pass K7BM 230635Z AUTO 21006KT 10SM OVC060 10/M05 A2993 RMK AO2 Elbert Mountain, Monument Pass KMNH 230635Z AUTO 18011KT 10SM SCT090 11/00 A2978 RMK AO2 Wilkerson Pass K4BM 230635Z AUTO 19007G19KT 10SM CLR 02/M03 A2999 RMK AO2 Copper Mountain, Red Cliff Pass KCCU 230636Z AUTO 23010G25KT 10SM SCT037 BKN043 BKN050 03/M03 A3001 RMK AO2 EMPIRE 0CO Sunlight K5SM 230638Z AUTO 20003KT 10SM BKN110 05/M03 A2991 RMK AO2 Mount Werner K3MW 230636Z AUTO 16023G32KT 10SM SCT060 SCT070 SCT120 06/M05 A2987 RMK AO2 PWINO
Garmin aera 796 $1999 at Avionics Specialists LLC
Bose A20 Aviation Headsets $995 at Avionics Specialists LLC